sensor_id;sensor_type;location;lat;lon;timestamp;P1;durP1;ratioP1;P2;durP2;ratioP2
58152;SDS011;43967;51.634;5.566;2024-02-26T00:00:29;5.43;;;1.90;;
58152;SDS011;43967;51.634;5.566;2024-02-26T00:05:50;5.67;;;1.77;;
58152;SDS011;43967;51.634;5.566;2024-02-26T00:11:11;6.60;;;1.85;;
58152;SDS011;43967;51.634;5.566;2024-02-26T00:16:33;6.20;;;1.95;;
58152;SDS011;43967;51.634;5.566;2024-02-26T00:21:54;5.60;;;1.70;;
58152;SDS011;43967;51.634;5.566;2024-02-26T00:27:15;5.80;;;2.03;;
58152;SDS011;43967;51.634;5.566;2024-02-26T00:32:37;5.68;;;1.63;;
58152;SDS011;43967;51.634;5.566;2024-02-26T00:37:58;5.88;;;2.00;;
58152;SDS011;43967;51.634;5.566;2024-02-26T00:43:19;5.27;;;1.50;;
58152;SDS011;43967;51.634;5.566;2024-02-26T00:48:40;5.32;;;1.85;;
58152;SDS011;43967;51.634;5.566;2024-02-26T00:54:02;5.65;;;1.75;;
58152;SDS011;43967;51.634;5.566;2024-02-26T00:59:23;5.73;;;1.97;;
58152;SDS011;43967;51.634;5.566;2024-02-26T01:04:44;5.40;;;1.70;;
58152;SDS011;43967;51.634;5.566;2024-02-26T01:10:06;6.40;;;1.88;;
58152;SDS011;43967;51.634;5.566;2024-02-26T01:15:27;5.43;;;1.60;;
58152;SDS011;43967;51.634;5.566;2024-02-26T01:20:49;5.43;;;1.80;;
58152;SDS011;43967;51.634;5.566;2024-02-26T01:26:10;6.00;;;1.80;;
58152;SDS011;43967;51.634;5.566;2024-02-26T01:31:31;4.80;;;1.40;;
58152;SDS011;43967;51.634;5.566;2024-02-26T01:36:53;5.53;;;1.67;;
58152;SDS011;43967;51.634;5.566;2024-02-26T01:42:14;4.80;;;1.52;;
58152;SDS011;43967;51.634;5.566;2024-02-26T01:47:35;6.85;;;2.13;;
58152;SDS011;43967;51.634;5.566;2024-02-26T01:52:56;5.87;;;2.10;;
58152;SDS011;43967;51.634;5.566;2024-02-26T01:58:18;5.22;;;1.75;;
58152;SDS011;43967;51.634;5.566;2024-02-26T02:03:40;5.18;;;1.30;;
58152;SDS011;43967;51.634;5.566;2024-02-26T02:09:01;6.27;;;1.73;;
58152;SDS011;43967;51.634;5.566;2024-02-26T02:14:22;5.33;;;1.73;;
58152;SDS011;43967;51.634;5.566;2024-02-26T02:19:46;5.57;;;1.90;;
58152;SDS011;43967;51.634;5.566;2024-02-26T02:25:07;5.25;;;1.50;;
58152;SDS011;43967;51.634;5.566;2024-02-26T02:30:29;5.47;;;1.57;;
58152;SDS011;43967;51.634;5.566;2024-02-26T02:35:51;5.45;;;1.65;;
58152;SDS011;43967;51.634;5.566;2024-02-26T02:41:13;5.18;;;1.50;;
58152;SDS011;43967;51.634;5.566;2024-02-26T02:46:34;5.13;;;1.60;;
58152;SDS011;43967;51.634;5.566;2024-02-26T02:51:55;5.32;;;1.52;;
58152;SDS011;43967;51.634;5.566;2024-02-26T02:57:16;6.30;;;1.60;;
58152;SDS011;43967;51.634;5.566;2024-02-26T03:02:38;5.17;;;1.60;;
58152;SDS011;43967;51.634;5.566;2024-02-26T03:07:59;5.23;;;1.70;;
58152;SDS011;43967;51.634;5.566;2024-02-26T03:13:20;5.38;;;1.88;;
58152;SDS011;43967;51.634;5.566;2024-02-26T03:18:42;5.00;;;1.60;;
58152;SDS011;43967;51.634;5.566;2024-02-26T03:24:03;5.50;;;1.60;;
58152;SDS011;43967;51.634;5.566;2024-02-26T03:29:24;5.07;;;1.65;;
58152;SDS011;43967;51.634;5.566;2024-02-26T03:34:46;5.60;;;1.70;;
58152;SDS011;43967;51.634;5.566;2024-02-26T03:40:07;4.97;;;1.33;;
58152;SDS011;43967;51.634;5.566;2024-02-26T03:45:29;5.68;;;1.55;;
58152;SDS011;43967;51.634;5.566;2024-02-26T03:50:50;5.22;;;1.67;;
58152;SDS011;43967;51.634;5.566;2024-02-26T03:56:12;6.37;;;1.70;;
58152;SDS011;43967;51.634;5.566;2024-02-26T04:01:33;4.67;;;1.43;;
58152;SDS011;43967;51.634;5.566;2024-02-26T04:06:54;5.00;;;1.67;;
58152;SDS011;43967;51.634;5.566;2024-02-26T04:12:15;5.03;;;1.70;;
58152;SDS011;43967;51.634;5.566;2024-02-26T04:17:37;4.97;;;1.33;;
58152;SDS011;43967;51.634;5.566;2024-02-26T04:22:58;4.93;;;1.40;;
58152;SDS011;43967;51.634;5.566;2024-02-26T04:28:20;4.95;;;1.50;;
58152;SDS011;43967;51.634;5.566;2024-02-26T04:33:41;5.23;;;1.37;;
58152;SDS011;43967;51.634;5.566;2024-02-26T04:39:02;4.93;;;1.30;;
58152;SDS011;43967;51.634;5.566;2024-02-26T04:44:25;5.30;;;1.65;;
58152;SDS011;43967;51.634;5.566;2024-02-26T04:49:47;5.20;;;1.37;;
58152;SDS011;43967;51.634;5.566;2024-02-26T04:55:10;4.93;;;1.90;;
58152;SDS011;43967;51.634;5.566;2024-02-26T05:00:31;5.40;;;1.73;;
58152;SDS011;43967;51.634;5.566;2024-02-26T05:05:52;5.45;;;1.60;;
58152;SDS011;43967;51.634;5.566;2024-02-26T05:11:13;4.37;;;1.40;;
58152;SDS011;43967;51.634;5.566;2024-02-26T05:16:35;5.03;;;1.58;;
58152;SDS011;43967;51.634;5.566;2024-02-26T05:21:56;6.25;;;1.45;;
58152;SDS011;43967;51.634;5.566;2024-02-26T05:27:17;5.03;;;1.50;;
58152;SDS011;43967;51.634;5.566;2024-02-26T05:32:38;5.03;;;1.17;;
58152;SDS011;43967;51.634;5.566;2024-02-26T05:38:00;4.47;;;1.15;;
58152;SDS011;43967;51.634;5.566;2024-02-26T05:43:21;4.63;;;1.57;;
58152;SDS011;43967;51.634;5.566;2024-02-26T05:48:42;5.50;;;1.53;;
58152;SDS011;43967;51.634;5.566;2024-02-26T05:54:03;4.85;;;1.48;;
58152;SDS011;43967;51.634;5.566;2024-02-26T05:59:25;4.18;;;1.30;;
58152;SDS011;43967;51.634;5.566;2024-02-26T06:04:46;4.40;;;1.27;;
58152;SDS011;43967;51.634;5.566;2024-02-26T06:10:07;5.13;;;1.30;;
58152;SDS011;43967;51.634;5.566;2024-02-26T06:15:29;4.18;;;1.30;;
58152;SDS011;43967;51.634;5.566;2024-02-26T06:20:50;5.17;;;1.83;;
58152;SDS011;43967;51.634;5.566;2024-02-26T06:26:11;5.03;;;1.77;;
58152;SDS011;43967;51.634;5.566;2024-02-26T06:31:32;4.45;;;1.20;;
58152;SDS011;43967;51.634;5.566;2024-02-26T06:36:54;4.80;;;1.73;;
58152;SDS011;43967;51.634;5.566;2024-02-26T06:42:15;5.43;;;1.80;;
58152;SDS011;43967;51.634;5.566;2024-02-26T06:47:36;4.85;;;1.45;;
58152;SDS011;43967;51.634;5.566;2024-02-26T06:52:57;4.90;;;1.30;;
58152;SDS011;43967;51.634;5.566;2024-02-26T06:58:19;4.83;;;1.40;;
58152;SDS011;43967;51.634;5.566;2024-02-26T07:03:40;5.50;;;1.85;;
58152;SDS011;43967;51.634;5.566;2024-02-26T07:09:01;4.63;;;1.30;;
58152;SDS011;43967;51.634;5.566;2024-02-26T07:14:23;5.03;;;1.53;;
58152;SDS011;43967;51.634;5.566;2024-02-26T07:19:44;4.93;;;1.50;;
58152;SDS011;43967;51.634;5.566;2024-02-26T07:25:05;4.47;;;1.35;;
58152;SDS011;43967;51.634;5.566;2024-02-26T07:30:27;5.23;;;1.87;;
58152;SDS011;43967;51.634;5.566;2024-02-26T07:35:48;4.70;;;1.30;;
58152;SDS011;43967;51.634;5.566;2024-02-26T07:41:09;5.25;;;1.80;;
58152;SDS011;43967;51.634;5.566;2024-02-26T07:46:32;4.88;;;1.50;;
58152;SDS011;43967;51.634;5.566;2024-02-26T07:51:53;4.33;;;1.47;;
58152;SDS011;43967;51.634;5.566;2024-02-26T07:57:14;4.70;;;1.30;;
58152;SDS011;43967;51.634;5.566;2024-02-26T08:02:36;5.30;;;1.63;;
58152;SDS011;43967;51.634;5.566;2024-02-26T08:07:57;4.50;;;1.73;;
58152;SDS011;43967;51.634;5.566;2024-02-26T08:13:18;5.20;;;1.55;;
58152;SDS011;43967;51.634;5.566;2024-02-26T08:18:40;4.70;;;1.48;;
58152;SDS011;43967;51.634;5.566;2024-02-26T08:24:01;5.47;;;1.50;;
58152;SDS011;43967;51.634;5.566;2024-02-26T08:29:24;4.80;;;1.70;;
58152;SDS011;43967;51.634;5.566;2024-02-26T08:34:45;5.00;;;1.73;;
58152;SDS011;43967;51.634;5.566;2024-02-26T08:40:06;5.03;;;1.50;;
58152;SDS011;43967;51.634;5.566;2024-02-26T08:45:28;4.80;;;1.30;;
58152;SDS011;43967;51.634;5.566;2024-02-26T08:50:49;5.03;;;1.70;;
58152;SDS011;43967;51.634;5.566;2024-02-26T08:56:11;4.80;;;1.55;;
58152;SDS011;43967;51.634;5.566;2024-02-26T09:01:32;5.20;;;1.77;;
58152;SDS011;43967;51.634;5.566;2024-02-26T09:06:54;5.00;;;1.50;;
58152;SDS011;43967;51.634;5.566;2024-02-26T09:12:15;4.65;;;1.60;;
58152;SDS011;43967;51.634;5.566;2024-02-26T09:17:36;7.10;;;1.80;;
58152;SDS011;43967;51.634;5.566;2024-02-26T09:23:00;6.37;;;1.80;;
58152;SDS011;43967;51.634;5.566;2024-02-26T09:28:21;6.15;;;2.13;;
58152;SDS011;43967;51.634;5.566;2024-02-26T09:33:43;5.85;;;1.80;;
58152;SDS011;43967;51.634;5.566;2024-02-26T09:39:04;6.00;;;2.10;;
58152;SDS011;43967;51.634;5.566;2024-02-26T09:44:25;5.43;;;1.73;;
58152;SDS011;43967;51.634;5.566;2024-02-26T09:49:49;7.07;;;2.05;;
58152;SDS011;43967;51.634;5.566;2024-02-26T09:55:12;7.97;;;2.70;;
58152;SDS011;43967;51.634;5.566;2024-02-26T10:00:36;7.20;;;1.90;;
58152;SDS011;43967;51.634;5.566;2024-02-26T10:05:58;7.18;;;2.15;;
58152;SDS011;43967;51.634;5.566;2024-02-26T10:11:19;8.43;;;2.00;;
58152;SDS011;43967;51.634;5.566;2024-02-26T10:16:42;8.87;;;2.20;;
58152;SDS011;43967;51.634;5.566;2024-02-26T10:22:04;8.30;;;1.80;;
58152;SDS011;43967;51.634;5.566;2024-02-26T10:27:25;8.38;;;2.22;;
58152;SDS011;43967;51.634;5.566;2024-02-26T10:32:47;8.40;;;1.90;;
58152;SDS011;43967;51.634;5.566;2024-02-26T10:38:09;6.00;;;2.00;;
58152;SDS011;43967;51.634;5.566;2024-02-26T10:43:30;6.40;;;1.70;;
58152;SDS011;43967;51.634;5.566;2024-02-26T10:48:52;9.50;;;2.40;;
58152;SDS011;43967;51.634;5.566;2024-02-26T10:54:15;8.25;;;2.40;;
58152;SDS011;43967;51.634;5.566;2024-02-26T10:59:36;9.50;;;2.28;;
58152;SDS011;43967;51.634;5.566;2024-02-26T11:05:01;9.03;;;2.30;;
58152;SDS011;43967;51.634;5.566;2024-02-26T11:10:23;7.03;;;2.33;;
58152;SDS011;43967;51.634;5.566;2024-02-26T11:15:46;7.38;;;2.55;;
58152;SDS011;43967;51.634;5.566;2024-02-26T11:21:07;6.95;;;2.78;;
58152;SDS011;43967;51.634;5.566;2024-02-26T11:26:31;9.83;;;2.27;;
58152;SDS011;43967;51.634;5.566;2024-02-26T11:31:55;6.40;;;2.38;;
58152;SDS011;43967;51.634;5.566;2024-02-26T11:37:20;7.97;;;2.58;;
58152;SDS011;43967;51.634;5.566;2024-02-26T11:42:44;6.63;;;2.40;;
58152;SDS011;43967;51.634;5.566;2024-02-26T11:53:33;7.00;;;2.90;;
58152;SDS011;43967;51.634;5.566;2024-02-26T11:58:58;6.13;;;2.47;;
58152;SDS011;43967;51.634;5.566;2024-02-26T12:04:26;7.37;;;3.03;;
58152;SDS011;43967;51.634;5.566;2024-02-26T12:09:50;6.75;;;2.90;;
58152;SDS011;43967;51.634;5.566;2024-02-26T12:15:12;6.72;;;2.67;;
58152;SDS011;43967;51.634;5.566;2024-02-26T12:20:36;7.23;;;2.67;;
58152;SDS011;43967;51.634;5.566;2024-02-26T12:25:58;6.82;;;2.28;;
58152;SDS011;43967;51.634;5.566;2024-02-26T12:31:20;6.95;;;2.67;;
58152;SDS011;43967;51.634;5.566;2024-02-26T12:36:41;6.27;;;2.60;;
58152;SDS011;43967;51.634;5.566;2024-02-26T12:42:02;6.72;;;2.47;;
58152;SDS011;43967;51.634;5.566;2024-02-26T12:47:26;6.82;;;3.00;;
58152;SDS011;43967;51.634;5.566;2024-02-26T12:52:47;6.10;;;2.27;;
58152;SDS011;43967;51.634;5.566;2024-02-26T12:58:11;7.00;;;3.00;;
58152;SDS011;43967;51.634;5.566;2024-02-26T13:03:34;6.75;;;2.97;;
58152;SDS011;43967;51.634;5.566;2024-02-26T13:08:56;7.28;;;3.08;;
58152;SDS011;43967;51.634;5.566;2024-02-26T13:14:21;6.60;;;2.50;;
58152;SDS011;43967;51.634;5.566;2024-02-26T13:19:51;6.40;;;2.40;;
58152;SDS011;43967;51.634;5.566;2024-02-26T13:25:12;6.05;;;2.08;;
58152;SDS011;43967;51.634;5.566;2024-02-26T13:30:33;7.70;;;2.63;;
58152;SDS011;43967;51.634;5.566;2024-02-26T13:35:55;6.00;;;2.10;;
58152;SDS011;43967;51.634;5.566;2024-02-26T13:41:17;5.75;;;1.95;;
58152;SDS011;43967;51.634;5.566;2024-02-26T13:46:40;6.77;;;2.50;;
58152;SDS011;43967;51.634;5.566;2024-02-26T13:52:01;6.67;;;2.70;;
58152;SDS011;43967;51.634;5.566;2024-02-26T13:57:22;7.43;;;2.58;;
58152;SDS011;43967;51.634;5.566;2024-02-26T14:02:43;6.38;;;2.10;;
58152;SDS011;43967;51.634;5.566;2024-02-26T14:08:05;6.37;;;2.40;;
58152;SDS011;43967;51.634;5.566;2024-02-26T14:13:26;6.00;;;2.28;;
58152;SDS011;43967;51.634;5.566;2024-02-26T14:18:47;5.72;;;1.90;;
58152;SDS011;43967;51.634;5.566;2024-02-26T14:24:09;6.20;;;2.20;;
58152;SDS011;43967;51.634;5.566;2024-02-26T14:29:32;5.38;;;1.85;;
58152;SDS011;43967;51.634;5.566;2024-02-26T14:34:53;6.40;;;1.92;;
58152;SDS011;43967;51.634;5.566;2024-02-26T14:40:16;6.23;;;2.03;;
58152;SDS011;43967;51.634;5.566;2024-02-26T14:45:38;5.60;;;2.20;;
58152;SDS011;43967;51.634;5.566;2024-02-26T14:50:59;6.30;;;2.25;;
58152;SDS011;43967;51.634;5.566;2024-02-26T14:56:22;6.07;;;1.77;;
58152;SDS011;43967;51.634;5.566;2024-02-26T15:01:43;4.93;;;1.43;;
58152;SDS011;43967;51.634;5.566;2024-02-26T15:07:04;5.95;;;2.10;;
58152;SDS011;43967;51.634;5.566;2024-02-26T15:12:26;5.65;;;2.03;;
58152;SDS011;43967;51.634;5.566;2024-02-26T15:17:47;6.87;;;1.90;;
58152;SDS011;43967;51.634;5.566;2024-02-26T15:23:09;5.30;;;1.63;;
58152;SDS011;43967;51.634;5.566;2024-02-26T15:28:30;5.78;;;1.85;;
58152;SDS011;43967;51.634;5.566;2024-02-26T15:33:51;5.77;;;1.83;;
58152;SDS011;43967;51.634;5.566;2024-02-26T15:39:13;5.27;;;1.73;;
58152;SDS011;43967;51.634;5.566;2024-02-26T15:44:34;5.75;;;1.90;;
58152;SDS011;43967;51.634;5.566;2024-02-26T15:49:58;6.40;;;2.05;;
58152;SDS011;43967;51.634;5.566;2024-02-26T15:55:20;5.90;;;1.83;;
58152;SDS011;43967;51.634;5.566;2024-02-26T16:00:41;5.50;;;1.80;;
58152;SDS011;43967;51.634;5.566;2024-02-26T16:06:03;5.13;;;1.67;;
58152;SDS011;43967;51.634;5.566;2024-02-26T16:11:25;5.73;;;1.77;;
58152;SDS011;43967;51.634;5.566;2024-02-26T16:16:51;6.22;;;1.83;;
58152;SDS011;43967;51.634;5.566;2024-02-26T16:22:17;6.85;;;1.67;;
58152;SDS011;43967;51.634;5.566;2024-02-26T16:27:39;6.67;;;1.87;;
58152;SDS011;43967;51.634;5.566;2024-02-26T16:33:00;7.03;;;2.30;;
58152;SDS011;43967;51.634;5.566;2024-02-26T16:38:22;6.75;;;2.10;;
58152;SDS011;43967;51.634;5.566;2024-02-26T16:43:43;6.45;;;2.10;;
58152;SDS011;43967;51.634;5.566;2024-02-26T16:49:05;6.37;;;2.00;;
58152;SDS011;43967;51.634;5.566;2024-02-26T16:54:26;5.65;;;1.75;;
58152;SDS011;43967;51.634;5.566;2024-02-26T16:59:47;5.40;;;1.80;;
58152;SDS011;43967;51.634;5.566;2024-02-26T17:05:09;5.93;;;1.90;;
58152;SDS011;43967;51.634;5.566;2024-02-26T17:10:30;5.40;;;1.75;;
58152;SDS011;43967;51.634;5.566;2024-02-26T17:15:51;5.75;;;1.92;;
58152;SDS011;43967;51.634;5.566;2024-02-26T17:21:16;6.03;;;1.87;;
58152;SDS011;43967;51.634;5.566;2024-02-26T17:26:38;6.37;;;1.83;;
58152;SDS011;43967;51.634;5.566;2024-02-26T17:31:59;9.15;;;2.30;;
58152;SDS011;43967;51.634;5.566;2024-02-26T17:37:20;10.07;;;2.88;;
58152;SDS011;43967;51.634;5.566;2024-02-26T17:42:42;12.80;;;3.10;;
58152;SDS011;43967;51.634;5.566;2024-02-26T17:48:04;13.70;;;3.05;;
58152;SDS011;43967;51.634;5.566;2024-02-26T17:53:25;10.50;;;2.78;;
58152;SDS011;43967;51.634;5.566;2024-02-26T17:58:46;9.77;;;2.50;;
58152;SDS011;43967;51.634;5.566;2024-02-26T18:04:08;10.63;;;2.78;;
58152;SDS011;43967;51.634;5.566;2024-02-26T18:09:29;9.40;;;2.72;;
58152;SDS011;43967;51.634;5.566;2024-02-26T18:14:50;8.03;;;2.00;;
58152;SDS011;43967;51.634;5.566;2024-02-26T18:20:11;7.57;;;2.63;;
58152;SDS011;43967;51.634;5.566;2024-02-26T18:25:37;8.32;;;2.33;;
58152;SDS011;43967;51.634;5.566;2024-02-26T18:30:58;7.18;;;2.58;;
58152;SDS011;43967;51.634;5.566;2024-02-26T18:36:19;8.70;;;2.43;;
58152;SDS011;43967;51.634;5.566;2024-02-26T18:41:40;8.57;;;2.50;;
58152;SDS011;43967;51.634;5.566;2024-02-26T18:47:02;7.97;;;2.33;;
58152;SDS011;43967;51.634;5.566;2024-02-26T18:52:23;7.33;;;2.10;;
58152;SDS011;43967;51.634;5.566;2024-02-26T18:57:44;6.10;;;2.03;;
58152;SDS011;43967;51.634;5.566;2024-02-26T19:03:06;8.00;;;2.20;;
58152;SDS011;43967;51.634;5.566;2024-02-26T19:08:27;6.87;;;2.03;;
58152;SDS011;43967;51.634;5.566;2024-02-26T19:13:48;7.23;;;2.30;;
58152;SDS011;43967;51.634;5.566;2024-02-26T19:19:09;7.55;;;2.60;;
58152;SDS011;43967;51.634;5.566;2024-02-26T19:24:31;8.40;;;2.20;;
58152;SDS011;43967;51.634;5.566;2024-02-26T19:29:52;7.03;;;2.00;;
58152;SDS011;43967;51.634;5.566;2024-02-26T19:35:14;8.15;;;2.25;;
58152;SDS011;43967;51.634;5.566;2024-02-26T19:40:35;6.63;;;2.10;;
58152;SDS011;43967;51.634;5.566;2024-02-26T19:45:56;7.80;;;2.80;;
58152;SDS011;43967;51.634;5.566;2024-02-26T19:51:17;6.50;;;2.30;;
58152;SDS011;43967;51.634;5.566;2024-02-26T19:56:39;7.65;;;2.15;;
58152;SDS011;43967;51.634;5.566;2024-02-26T20:02:00;6.50;;;2.00;;
58152;SDS011;43967;51.634;5.566;2024-02-26T20:07:21;6.83;;;2.37;;
58152;SDS011;43967;51.634;5.566;2024-02-26T20:12:43;6.30;;;2.50;;
58152;SDS011;43967;51.634;5.566;2024-02-26T20:18:04;6.05;;;2.10;;
58152;SDS011;43967;51.634;5.566;2024-02-26T20:23:25;7.17;;;2.07;;
58152;SDS011;43967;51.634;5.566;2024-02-26T20:28:46;6.30;;;2.20;;
58152;SDS011;43967;51.634;5.566;2024-02-26T20:34:08;7.68;;;2.25;;
58152;SDS011;43967;51.634;5.566;2024-02-26T20:39:29;7.07;;;2.80;;
58152;SDS011;43967;51.634;5.566;2024-02-26T20:44:50;6.78;;;2.10;;
58152;SDS011;43967;51.634;5.566;2024-02-26T20:50:12;6.63;;;2.22;;
58152;SDS011;43967;51.634;5.566;2024-02-26T20:55:35;6.33;;;2.63;;
58152;SDS011;43967;51.634;5.566;2024-02-26T21:00:58;7.00;;;2.70;;
58152;SDS011;43967;51.634;5.566;2024-02-26T21:06:19;6.25;;;2.00;;
58152;SDS011;43967;51.634;5.566;2024-02-26T21:11:40;6.57;;;2.65;;
58152;SDS011;43967;51.634;5.566;2024-02-26T21:17:01;6.00;;;2.10;;
58152;SDS011;43967;51.634;5.566;2024-02-26T21:22:23;6.78;;;2.15;;
58152;SDS011;43967;51.634;5.566;2024-02-26T21:27:44;6.22;;;2.25;;
58152;SDS011;43967;51.634;5.566;2024-02-26T21:33:05;6.60;;;2.03;;
58152;SDS011;43967;51.634;5.566;2024-02-26T21:38:26;6.30;;;2.25;;
58152;SDS011;43967;51.634;5.566;2024-02-26T21:43:48;6.03;;;1.98;;
58152;SDS011;43967;51.634;5.566;2024-02-26T21:49:09;6.37;;;2.27;;
58152;SDS011;43967;51.634;5.566;2024-02-26T21:54:33;5.67;;;1.77;;
58152;SDS011;43967;51.634;5.566;2024-02-26T21:59:55;6.03;;;2.30;;
58152;SDS011;43967;51.634;5.566;2024-02-26T22:05:16;6.25;;;2.10;;
58152;SDS011;43967;51.634;5.566;2024-02-26T22:10:38;7.00;;;2.40;;
58152;SDS011;43967;51.634;5.566;2024-02-26T22:15:59;7.05;;;2.20;;
58152;SDS011;43967;51.634;5.566;2024-02-26T22:21:20;6.80;;;2.22;;
58152;SDS011;43967;51.634;5.566;2024-02-26T22:26:42;6.23;;;2.33;;
58152;SDS011;43967;51.634;5.566;2024-02-26T22:32:03;5.95;;;2.05;;
58152;SDS011;43967;51.634;5.566;2024-02-26T22:37:24;6.10;;;2.22;;
58152;SDS011;43967;51.634;5.566;2024-02-26T22:42:46;6.20;;;2.50;;
58152;SDS011;43967;51.634;5.566;2024-02-26T22:48:07;6.90;;;2.30;;
58152;SDS011;43967;51.634;5.566;2024-02-26T22:53:28;6.68;;;2.42;;
58152;SDS011;43967;51.634;5.566;2024-02-26T22:58:49;7.20;;;2.28;;
58152;SDS011;43967;51.634;5.566;2024-02-26T23:04:11;6.27;;;2.23;;
58152;SDS011;43967;51.634;5.566;2024-02-26T23:09:32;6.13;;;2.38;;
58152;SDS011;43967;51.634;5.566;2024-02-26T23:14:53;5.82;;;2.03;;
58152;SDS011;43967;51.634;5.566;2024-02-26T23:20:14;6.13;;;2.27;;
58152;SDS011;43967;51.634;5.566;2024-02-26T23:25:36;5.82;;;1.90;;
58152;SDS011;43967;51.634;5.566;2024-02-26T23:30:57;5.70;;;1.95;;
58152;SDS011;43967;51.634;5.566;2024-02-26T23:36:18;5.70;;;1.90;;
58152;SDS011;43967;51.634;5.566;2024-02-26T23:41:39;5.77;;;2.30;;
58152;SDS011;43967;51.634;5.566;2024-02-26T23:47:01;5.82;;;2.20;;
58152;SDS011;43967;51.634;5.566;2024-02-26T23:52:22;5.80;;;1.92;;
58152;SDS011;43967;51.634;5.566;2024-02-26T23:57:43;6.13;;;2.07;;
